sensor_id;sensor_type;location;lat;lon;timestamp;P1;durP1;ratioP1;P2;durP2;ratioP2
23782;SDS011;12071;50.850;4.446;2023-01-08T00:01:42;3.90;;;2.33;;
23782;SDS011;12071;50.850;4.446;2023-01-08T00:04:08;11.70;;;2.90;;
23782;SDS011;12071;50.850;4.446;2023-01-08T00:06:33;7.15;;;2.28;;
23782;SDS011;12071;50.850;4.446;2023-01-08T00:08:59;7.35;;;2.55;;
23782;SDS011;12071;50.850;4.446;2023-01-08T00:11:25;6.40;;;2.80;;
23782;SDS011;12071;50.850;4.446;2023-01-08T00:13:51;4.03;;;2.28;;
23782;SDS011;12071;50.850;4.446;2023-01-08T00:16:17;6.82;;;2.70;;
23782;SDS011;12071;50.850;4.446;2023-01-08T00:18:45;7.18;;;2.50;;
23782;SDS011;12071;50.850;4.446;2023-01-08T00:21:11;4.10;;;2.40;;
23782;SDS011;12071;50.850;4.446;2023-01-08T00:23:37;5.70;;;2.50;;
23782;SDS011;12071;50.850;4.446;2023-01-08T00:26:04;3.72;;;1.20;;
23782;SDS011;12071;50.850;4.446;2023-01-08T00:28:32;1.80;;;0.82;;
23782;SDS011;12071;50.850;4.446;2023-01-08T00:30:58;1.42;;;0.60;;
23782;SDS011;12071;50.850;4.446;2023-01-08T00:33:25;1.38;;;0.50;;
23782;SDS011;12071;50.850;4.446;2023-01-08T00:35:51;2.45;;;0.70;;
23782;SDS011;12071;50.850;4.446;2023-01-08T00:38:16;2.00;;;0.40;;
23782;SDS011;12071;50.850;4.446;2023-01-08T00:40:42;3.20;;;0.55;;
23782;SDS011;12071;50.850;4.446;2023-01-08T00:43:07;5.50;;;0.90;;
23782;SDS011;12071;50.850;4.446;2023-01-08T00:45:33;5.38;;;0.85;;
23782;SDS011;12071;50.850;4.446;2023-01-08T00:47:59;2.25;;;0.70;;
23782;SDS011;12071;50.850;4.446;2023-01-08T00:50:25;2.60;;;0.60;;
23782;SDS011;12071;50.850;4.446;2023-01-08T00:52:51;4.53;;;0.70;;
23782;SDS011;12071;50.850;4.446;2023-01-08T00:55:17;5.88;;;0.80;;
23782;SDS011;12071;50.850;4.446;2023-01-08T00:57:42;5.60;;;1.02;;
23782;SDS011;12071;50.850;4.446;2023-01-08T01:00:10;5.97;;;0.75;;
23782;SDS011;12071;50.850;4.446;2023-01-08T01:02:38;1.23;;;0.55;;
23782;SDS011;12071;50.850;4.446;2023-01-08T01:05:05;8.02;;;0.75;;
23782;SDS011;12071;50.850;4.446;2023-01-08T01:07:32;4.65;;;0.73;;
23782;SDS011;12071;50.850;4.446;2023-01-08T01:09:58;4.95;;;0.80;;
23782;SDS011;12071;50.850;4.446;2023-01-08T01:12:23;6.68;;;1.10;;
23782;SDS011;12071;50.850;4.446;2023-01-08T01:14:49;3.63;;;0.80;;
23782;SDS011;12071;50.850;4.446;2023-01-08T01:17:15;4.03;;;0.75;;
23782;SDS011;12071;50.850;4.446;2023-01-08T01:19:40;4.68;;;0.80;;
23782;SDS011;12071;50.850;4.446;2023-01-08T01:22:07;6.55;;;0.90;;
23782;SDS011;12071;50.850;4.446;2023-01-08T01:24:32;6.30;;;0.85;;
23782;SDS011;12071;50.850;4.446;2023-01-08T01:26:58;5.97;;;1.10;;
23782;SDS011;12071;50.850;4.446;2023-01-08T01:29:24;4.78;;;0.70;;
23782;SDS011;12071;50.850;4.446;2023-01-08T01:31:50;5.60;;;1.10;;
23782;SDS011;12071;50.850;4.446;2023-01-08T01:34:15;6.60;;;0.93;;
23782;SDS011;12071;50.850;4.446;2023-01-08T01:36:41;3.88;;;0.77;;
23782;SDS011;12071;50.850;4.446;2023-01-08T01:39:07;6.22;;;1.02;;
23782;SDS011;12071;50.850;4.446;2023-01-08T01:46:59;6.38;;;1.40;;
23782;SDS011;12071;50.850;4.446;2023-01-08T01:49:35;4.50;;;1.20;;
23782;SDS011;12071;50.850;4.446;2023-01-08T01:52:02;6.05;;;1.90;;
23782;SDS011;12071;50.850;4.446;2023-01-08T01:54:32;9.15;;;1.50;;
23782;SDS011;12071;50.850;4.446;2023-01-08T01:57:00;6.93;;;1.50;;
23782;SDS011;12071;50.850;4.446;2023-01-08T01:59:26;7.47;;;1.52;;
23782;SDS011;12071;50.850;4.446;2023-01-08T02:01:52;7.88;;;1.45;;
23782;SDS011;12071;50.850;4.446;2023-01-08T02:04:19;6.43;;;1.63;;
23782;SDS011;12071;50.850;4.446;2023-01-08T02:06:50;11.27;;;1.90;;
23782;SDS011;12071;50.850;4.446;2023-01-08T02:09:44;8.75;;;1.58;;
23782;SDS011;12071;50.850;4.446;2023-01-08T02:20:29;7.97;;;2.35;;
23782;SDS011;12071;50.850;4.446;2023-01-08T02:28:22;8.07;;;2.22;;
23782;SDS011;12071;50.850;4.446;2023-01-08T02:30:50;6.63;;;2.13;;
23782;SDS011;12071;50.850;4.446;2023-01-08T02:33:16;7.38;;;2.38;;
23782;SDS011;12071;50.850;4.446;2023-01-08T02:35:52;7.18;;;2.17;;
23782;SDS011;12071;50.850;4.446;2023-01-08T02:38:35;9.40;;;2.63;;
23782;SDS011;12071;50.850;4.446;2023-01-08T02:41:06;8.10;;;2.50;;
23782;SDS011;12071;50.850;4.446;2023-01-08T02:43:37;8.18;;;2.50;;
23782;SDS011;12071;50.850;4.446;2023-01-08T02:46:05;10.02;;;2.95;;
23782;SDS011;12071;50.850;4.446;2023-01-08T02:48:50;7.45;;;1.98;;
23782;SDS011;12071;50.850;4.446;2023-01-08T02:53:56;2.50;;;1.38;;
23782;SDS011;12071;50.850;4.446;2023-01-08T02:57:25;4.47;;;1.58;;
23782;SDS011;12071;50.850;4.446;2023-01-08T02:59:45;5.35;;;2.00;;
23782;SDS011;12071;50.850;4.446;2023-01-08T03:02:13;6.60;;;2.20;;
23782;SDS011;12071;50.850;4.446;2023-01-08T03:04:41;4.30;;;2.28;;
23782;SDS011;12071;50.850;4.446;2023-01-08T03:07:13;6.03;;;2.22;;
23782;SDS011;12071;50.850;4.446;2023-01-08T03:09:39;6.32;;;1.60;;
23782;SDS011;12071;50.850;4.446;2023-01-08T03:12:08;3.45;;;1.30;;
23782;SDS011;12071;50.850;4.446;2023-01-08T03:14:49;7.28;;;1.83;;
23782;SDS011;12071;50.850;4.446;2023-01-08T03:17:29;2.25;;;1.10;;
23782;SDS011;12071;50.850;4.446;2023-01-08T03:19:59;4.35;;;0.90;;
23782;SDS011;12071;50.850;4.446;2023-01-08T03:22:29;3.67;;;0.90;;
23782;SDS011;12071;50.850;4.446;2023-01-08T03:24:57;7.63;;;1.17;;
23782;SDS011;12071;50.850;4.446;2023-01-08T03:27:24;4.57;;;1.02;;
23782;SDS011;12071;50.850;4.446;2023-01-08T03:29:53;3.97;;;1.02;;
23782;SDS011;12071;50.850;4.446;2023-01-08T03:32:22;3.75;;;0.90;;
23782;SDS011;12071;50.850;4.446;2023-01-08T03:34:51;7.30;;;1.27;;
23782;SDS011;12071;50.850;4.446;2023-01-08T03:37:19;5.85;;;1.10;;
23782;SDS011;12071;50.850;4.446;2023-01-08T03:40:03;5.50;;;1.13;;
23782;SDS011;12071;50.850;4.446;2023-01-08T03:42:33;7.82;;;1.27;;
23782;SDS011;12071;50.850;4.446;2023-01-08T03:44:59;7.53;;;0.90;;
23782;SDS011;12071;50.850;4.446;2023-01-08T03:47:26;5.38;;;1.27;;
23782;SDS011;12071;50.850;4.446;2023-01-08T03:49:55;3.85;;;1.13;;
23782;SDS011;12071;50.850;4.446;2023-01-08T03:52:25;9.13;;;1.65;;
23782;SDS011;12071;50.850;4.446;2023-01-08T03:54:55;4.57;;;0.70;;
23782;SDS011;12071;50.850;4.446;2023-01-08T03:57:20;6.22;;;1.05;;
23782;SDS011;12071;50.850;4.446;2023-01-08T03:59:46;6.90;;;1.17;;
23782;SDS011;12071;50.850;4.446;2023-01-08T04:02:12;3.75;;;0.82;;
23782;SDS011;12071;50.850;4.446;2023-01-08T04:04:38;8.45;;;0.88;;
23782;SDS011;12071;50.850;4.446;2023-01-08T04:07:04;4.75;;;0.82;;
23782;SDS011;12071;50.850;4.446;2023-01-08T04:09:30;7.32;;;0.98;;
23782;SDS011;12071;50.850;4.446;2023-01-08T04:11:55;3.88;;;1.05;;
23782;SDS011;12071;50.850;4.446;2023-01-08T04:14:21;11.38;;;1.88;;
23782;SDS011;12071;50.850;4.446;2023-01-08T04:16:46;7.40;;;1.30;;
23782;SDS011;12071;50.850;4.446;2023-01-08T04:19:12;10.77;;;1.15;;
23782;SDS011;12071;50.850;4.446;2023-01-08T04:21:40;7.57;;;1.52;;
23782;SDS011;12071;50.850;4.446;2023-01-08T04:24:05;5.35;;;1.20;;
23782;SDS011;12071;50.850;4.446;2023-01-08T04:26:31;10.75;;;1.40;;
23782;SDS011;12071;50.850;4.446;2023-01-08T04:28:57;9.48;;;1.27;;
23782;SDS011;12071;50.850;4.446;2023-01-08T04:31:25;10.50;;;1.17;;
23782;SDS011;12071;50.850;4.446;2023-01-08T04:33:51;9.27;;;1.30;;
23782;SDS011;12071;50.850;4.446;2023-01-08T04:36:17;7.45;;;1.33;;
23782;SDS011;12071;50.850;4.446;2023-01-08T04:38:42;10.32;;;2.22;;
23782;SDS011;12071;50.850;4.446;2023-01-08T04:41:08;6.82;;;1.63;;
23782;SDS011;12071;50.850;4.446;2023-01-08T04:43:33;8.73;;;1.20;;
23782;SDS011;12071;50.850;4.446;2023-01-08T04:45:59;10.18;;;2.05;;
23782;SDS011;12071;50.850;4.446;2023-01-08T04:48:26;9.18;;;1.20;;
23782;SDS011;12071;50.850;4.446;2023-01-08T04:50:52;9.57;;;1.67;;
23782;SDS011;12071;50.850;4.446;2023-01-08T04:53:19;11.23;;;1.38;;
23782;SDS011;12071;50.850;4.446;2023-01-08T04:55:44;11.25;;;1.83;;
23782;SDS011;12071;50.850;4.446;2023-01-08T04:58:10;13.90;;;1.55;;
23782;SDS011;12071;50.850;4.446;2023-01-08T05:00:37;9.30;;;1.95;;
23782;SDS011;12071;50.850;4.446;2023-01-08T05:03:03;8.88;;;1.50;;
23782;SDS011;12071;50.850;4.446;2023-01-08T05:05:29;18.55;;;1.88;;
23782;SDS011;12071;50.850;4.446;2023-01-08T05:07:54;10.40;;;2.40;;
23782;SDS011;12071;50.850;4.446;2023-01-08T05:10:20;15.68;;;2.67;;
23782;SDS011;12071;50.850;4.446;2023-01-08T05:12:46;8.07;;;2.28;;
23782;SDS011;12071;50.850;4.446;2023-01-08T05:15:11;11.25;;;2.90;;
23782;SDS011;12071;50.850;4.446;2023-01-08T05:17:37;13.07;;;3.50;;
23782;SDS011;12071;50.850;4.446;2023-01-08T05:20:03;16.92;;;2.72;;
23782;SDS011;12071;50.850;4.446;2023-01-08T05:22:28;12.10;;;3.05;;
23782;SDS011;12071;50.850;4.446;2023-01-08T05:24:54;14.20;;;3.22;;
23782;SDS011;12071;50.850;4.446;2023-01-08T05:27:20;17.08;;;3.30;;
23782;SDS011;12071;50.850;4.446;2023-01-08T05:29:45;13.02;;;3.10;;
23782;SDS011;12071;50.850;4.446;2023-01-08T05:32:15;14.85;;;3.63;;
23782;SDS011;12071;50.850;4.446;2023-01-08T05:34:42;11.45;;;3.63;;
23782;SDS011;12071;50.850;4.446;2023-01-08T05:37:09;15.93;;;4.32;;
23782;SDS011;12071;50.850;4.446;2023-01-08T05:39:34;15.45;;;4.45;;
23782;SDS011;12071;50.850;4.446;2023-01-08T05:42:01;20.20;;;4.85;;
23782;SDS011;12071;50.850;4.446;2023-01-08T05:44:26;16.20;;;4.18;;
23782;SDS011;12071;50.850;4.446;2023-01-08T05:46:52;11.07;;;4.05;;
23782;SDS011;12071;50.850;4.446;2023-01-08T05:49:18;11.48;;;4.05;;
23782;SDS011;12071;50.850;4.446;2023-01-08T05:51:45;13.68;;;4.10;;
23782;SDS011;12071;50.850;4.446;2023-01-08T05:54:12;12.70;;;3.08;;
23782;SDS011;12071;50.850;4.446;2023-01-08T05:56:38;14.13;;;3.08;;
23782;SDS011;12071;50.850;4.446;2023-01-08T05:59:04;9.88;;;2.67;;
23782;SDS011;12071;50.850;4.446;2023-01-08T06:01:31;11.48;;;2.85;;
23782;SDS011;12071;50.850;4.446;2023-01-08T06:03:57;12.82;;;2.20;;
23782;SDS011;12071;50.850;4.446;2023-01-08T06:06:23;10.15;;;2.40;;
23782;SDS011;12071;50.850;4.446;2023-01-08T06:08:49;8.20;;;1.90;;
23782;SDS011;12071;50.850;4.446;2023-01-08T06:11:14;8.32;;;1.98;;
23782;SDS011;12071;50.850;4.446;2023-01-08T06:13:41;8.23;;;1.40;;
23782;SDS011;12071;50.850;4.446;2023-01-08T06:16:08;9.43;;;1.80;;
23782;SDS011;12071;50.850;4.446;2023-01-08T06:18:33;10.88;;;1.70;;
23782;SDS011;12071;50.850;4.446;2023-01-08T06:21:00;9.35;;;1.30;;
23782;SDS011;12071;50.850;4.446;2023-01-08T06:23:29;9.48;;;1.83;;
23782;SDS011;12071;50.850;4.446;2023-01-08T06:25:55;5.90;;;1.38;;
23782;SDS011;12071;50.850;4.446;2023-01-08T06:28:22;7.85;;;1.30;;
23782;SDS011;12071;50.850;4.446;2023-01-08T06:30:48;10.13;;;1.27;;
23782;SDS011;12071;50.850;4.446;2023-01-08T06:33:14;9.63;;;1.95;;
23782;SDS011;12071;50.850;4.446;2023-01-08T06:35:40;10.70;;;1.70;;
23782;SDS011;12071;50.850;4.446;2023-01-08T06:38:06;8.13;;;1.48;;
23782;SDS011;12071;50.850;4.446;2023-01-08T06:40:31;14.98;;;1.83;;
23782;SDS011;12071;50.850;4.446;2023-01-08T06:43:01;7.95;;;1.73;;
23782;SDS011;12071;50.850;4.446;2023-01-08T06:45:27;12.55;;;1.70;;
23782;SDS011;12071;50.850;4.446;2023-01-08T06:47:53;6.90;;;1.50;;
23782;SDS011;12071;50.850;4.446;2023-01-08T06:50:19;13.32;;;1.40;;
23782;SDS011;12071;50.850;4.446;2023-01-08T06:52:51;13.57;;;1.30;;
23782;SDS011;12071;50.850;4.446;2023-01-08T06:55:18;17.48;;;1.63;;
23782;SDS011;12071;50.850;4.446;2023-01-08T06:57:44;11.07;;;1.40;;
23782;SDS011;12071;50.850;4.446;2023-01-08T07:00:09;9.65;;;1.60;;
23782;SDS011;12071;50.850;4.446;2023-01-08T07:02:36;13.95;;;1.50;;
23782;SDS011;12071;50.850;4.446;2023-01-08T07:05:01;8.20;;;1.65;;
23782;SDS011;12071;50.850;4.446;2023-01-08T07:07:27;13.77;;;2.03;;
23782;SDS011;12071;50.850;4.446;2023-01-08T07:09:53;8.18;;;1.20;;
23782;SDS011;12071;50.850;4.446;2023-01-08T07:12:18;12.32;;;1.70;;
23782;SDS011;12071;50.850;4.446;2023-01-08T07:14:44;9.52;;;1.23;;
23782;SDS011;12071;50.850;4.446;2023-01-08T07:17:09;12.50;;;1.40;;
23782;SDS011;12071;50.850;4.446;2023-01-08T07:19:35;17.85;;;1.70;;
23782;SDS011;12071;50.850;4.446;2023-01-08T07:22:01;13.80;;;2.15;;
23782;SDS011;12071;50.850;4.446;2023-01-08T07:24:27;11.82;;;1.67;;
23782;SDS011;12071;50.850;4.446;2023-01-08T07:26:52;12.20;;;1.50;;
23782;SDS011;12071;50.850;4.446;2023-01-08T07:29:18;10.63;;;1.77;;
23782;SDS011;12071;50.850;4.446;2023-01-08T07:31:43;11.73;;;1.85;;
23782;SDS011;12071;50.850;4.446;2023-01-08T07:34:09;14.27;;;1.88;;
23782;SDS011;12071;50.850;4.446;2023-01-08T07:36:35;9.15;;;1.70;;
23782;SDS011;12071;50.850;4.446;2023-01-08T07:39:01;12.23;;;2.22;;
23782;SDS011;12071;50.850;4.446;2023-01-08T07:41:27;13.02;;;1.70;;
23782;SDS011;12071;50.850;4.446;2023-01-08T07:43:52;11.77;;;1.88;;
23782;SDS011;12071;50.850;4.446;2023-01-08T07:46:18;8.20;;;1.40;;
23782;SDS011;12071;50.850;4.446;2023-01-08T07:48:45;9.60;;;1.85;;
23782;SDS011;12071;50.850;4.446;2023-01-08T07:51:11;10.95;;;1.80;;
23782;SDS011;12071;50.850;4.446;2023-01-08T07:53:36;10.30;;;1.88;;
23782;SDS011;12071;50.850;4.446;2023-01-08T07:56:02;11.18;;;1.50;;
23782;SDS011;12071;50.850;4.446;2023-01-08T07:58:32;5.93;;;1.70;;
23782;SDS011;12071;50.850;4.446;2023-01-08T08:00:59;12.07;;;1.88;;
23782;SDS011;12071;50.850;4.446;2023-01-08T08:03:25;11.32;;;1.75;;
23782;SDS011;12071;50.850;4.446;2023-01-08T08:05:50;15.32;;;1.73;;
23782;SDS011;12071;50.850;4.446;2023-01-08T08:08:16;10.45;;;1.85;;
23782;SDS011;12071;50.850;4.446;2023-01-08T08:10:43;8.57;;;1.70;;
23782;SDS011;12071;50.850;4.446;2023-01-08T08:13:09;9.57;;;2.25;;
23782;SDS011;12071;50.850;4.446;2023-01-08T08:15:36;10.40;;;1.73;;
23782;SDS011;12071;50.850;4.446;2023-01-08T08:18:03;13.85;;;2.17;;
23782;SDS011;12071;50.850;4.446;2023-01-08T08:20:29;11.52;;;1.50;;
23782;SDS011;12071;50.850;4.446;2023-01-08T08:23:01;11.38;;;1.75;;
23782;SDS011;12071;50.850;4.446;2023-01-08T08:25:28;8.82;;;2.22;;
23782;SDS011;12071;50.850;4.446;2023-01-08T08:27:55;10.20;;;2.33;;
23782;SDS011;12071;50.850;4.446;2023-01-08T08:30:22;6.68;;;1.50;;
23782;SDS011;12071;50.850;4.446;2023-01-08T08:32:48;9.52;;;2.10;;
23782;SDS011;12071;50.850;4.446;2023-01-08T08:35:14;8.75;;;1.45;;
23782;SDS011;12071;50.850;4.446;2023-01-08T08:37:40;6.40;;;1.48;;
23782;SDS011;12071;50.850;4.446;2023-01-08T08:40:05;12.10;;;2.10;;
23782;SDS011;12071;50.850;4.446;2023-01-08T08:42:32;9.70;;;1.75;;
23782;SDS011;12071;50.850;4.446;2023-01-08T08:44:57;7.63;;;1.50;;
23782;SDS011;12071;50.850;4.446;2023-01-08T08:47:23;8.18;;;1.60;;
23782;SDS011;12071;50.850;4.446;2023-01-08T08:49:48;9.18;;;1.67;;
23782;SDS011;12071;50.850;4.446;2023-01-08T08:52:14;7.13;;;1.40;;
23782;SDS011;12071;50.850;4.446;2023-01-08T08:54:40;8.95;;;1.40;;
23782;SDS011;12071;50.850;4.446;2023-01-08T08:57:06;9.15;;;1.40;;
23782;SDS011;12071;50.850;4.446;2023-01-08T08:59:37;7.80;;;1.80;;
23782;SDS011;12071;50.850;4.446;2023-01-08T09:02:03;6.30;;;1.10;;
23782;SDS011;12071;50.850;4.446;2023-01-08T09:04:30;6.57;;;1.40;;
23782;SDS011;12071;50.850;4.446;2023-01-08T09:06:56;2.75;;;0.88;;
23782;SDS011;12071;50.850;4.446;2023-01-08T09:09:22;1.95;;;0.70;;
23782;SDS011;12071;50.850;4.446;2023-01-08T09:11:47;3.70;;;0.80;;
23782;SDS011;12071;50.850;4.446;2023-01-08T09:14:13;2.58;;;0.80;;
23782;SDS011;12071;50.850;4.446;2023-01-08T09:16:38;3.47;;;0.70;;
23782;SDS011;12071;50.850;4.446;2023-01-08T09:19:04;2.67;;;0.75;;
23782;SDS011;12071;50.850;4.446;2023-01-08T09:21:31;1.00;;;0.50;;
23782;SDS011;12071;50.850;4.446;2023-01-08T09:23:57;2.08;;;0.30;;
23782;SDS011;12071;50.850;4.446;2023-01-08T09:26:22;1.55;;;0.50;;
23782;SDS011;12071;50.850;4.446;2023-01-08T09:28:48;0.88;;;0.30;;
23782;SDS011;12071;50.850;4.446;2023-01-08T09:31:13;2.28;;;0.50;;
23782;SDS011;12071;50.850;4.446;2023-01-08T09:33:39;2.47;;;0.38;;
23782;SDS011;12071;50.850;4.446;2023-01-08T09:36:08;0.80;;;0.43;;
23782;SDS011;12071;50.850;4.446;2023-01-08T09:38:35;1.40;;;0.47;;
23782;SDS011;12071;50.850;4.446;2023-01-08T09:41:02;1.75;;;0.65;;
23782;SDS011;12071;50.850;4.446;2023-01-08T09:43:32;1.13;;;0.30;;
23782;SDS011;12071;50.850;4.446;2023-01-08T09:46:01;2.33;;;0.50;;
23782;SDS011;12071;50.850;4.446;2023-01-08T09:48:30;1.50;;;0.60;;
23782;SDS011;12071;50.850;4.446;2023-01-08T09:51:00;2.55;;;0.50;;
23782;SDS011;12071;50.850;4.446;2023-01-08T09:53:26;1.65;;;0.60;;
23782;SDS011;12071;50.850;4.446;2023-01-08T09:55:57;2.03;;;0.50;;
23782;SDS011;12071;50.850;4.446;2023-01-08T10:01:04;2.20;;;0.50;;
23782;SDS011;12071;50.850;4.446;2023-01-08T10:03:41;2.00;;;0.60;;
23782;SDS011;12071;50.850;4.446;2023-01-08T10:06:10;2.35;;;0.70;;
23782;SDS011;12071;50.850;4.446;2023-01-08T10:08:38;2.78;;;0.63;;
23782;SDS011;12071;50.850;4.446;2023-01-08T10:11:04;3.03;;;0.50;;
23782;SDS011;12071;50.850;4.446;2023-01-08T10:13:31;4.07;;;0.70;;
23782;SDS011;12071;50.850;4.446;2023-01-08T10:15:58;2.72;;;0.88;;
23782;SDS011;12071;50.850;4.446;2023-01-08T10:18:25;1.73;;;0.57;;
23782;SDS011;12071;50.850;4.446;2023-01-08T10:20:52;4.22;;;0.90;;
23782;SDS011;12071;50.850;4.446;2023-01-08T10:23:19;4.43;;;0.90;;
23782;SDS011;12071;50.850;4.446;2023-01-08T10:28:28;4.43;;;0.90;;
23782;SDS011;12071;50.850;4.446;2023-01-08T10:30:59;8.60;;;0.93;;
23782;SDS011;12071;50.850;4.446;2023-01-08T10:33:45;4.18;;;1.00;;
23782;SDS011;12071;50.850;4.446;2023-01-08T10:36:15;6.05;;;1.10;;
23782;SDS011;12071;50.850;4.446;2023-01-08T10:38:56;5.30;;;1.00;;
23782;SDS011;12071;50.850;4.446;2023-01-08T10:41:24;4.00;;;0.80;;
23782;SDS011;12071;50.850;4.446;2023-01-08T10:43:55;5.20;;;0.82;;
23782;SDS011;12071;50.850;4.446;2023-01-08T10:46:42;6.55;;;1.20;;
23782;SDS011;12071;50.850;4.446;2023-01-08T10:49:31;3.20;;;0.93;;
23782;SDS011;12071;50.850;4.446;2023-01-08T10:52:03;4.95;;;1.00;;
23782;SDS011;12071;50.850;4.446;2023-01-08T10:57:00;3.47;;;1.15;;
23782;SDS011;12071;50.850;4.446;2023-01-08T10:59:26;6.38;;;0.98;;
23782;SDS011;12071;50.850;4.446;2023-01-08T11:01:53;5.05;;;1.60;;
23782;SDS011;12071;50.850;4.446;2023-01-08T11:04:27;4.07;;;1.02;;
23782;SDS011;12071;50.850;4.446;2023-01-08T11:07:02;6.70;;;1.00;;
23782;SDS011;12071;50.850;4.446;2023-01-08T11:12:17;4.68;;;1.25;;
23782;SDS011;12071;50.850;4.446;2023-01-08T11:15:03;5.53;;;1.00;;
23782;SDS011;12071;50.850;4.446;2023-01-08T11:17:38;5.95;;;1.20;;
23782;SDS011;12071;50.850;4.446;2023-01-08T11:20:23;5.07;;;1.15;;
23782;SDS011;12071;50.850;4.446;2023-01-08T11:25:55;5.25;;;1.10;;
23782;SDS011;12071;50.850;4.446;2023-01-08T11:31:25;7.03;;;1.23;;
23782;SDS011;12071;50.850;4.446;2023-01-08T11:34:02;5.75;;;1.30;;
23782;SDS011;12071;50.850;4.446;2023-01-08T11:36:38;2.80;;;0.93;;
23782;SDS011;12071;50.850;4.446;2023-01-08T11:39:10;4.18;;;1.08;;
23782;SDS011;12071;50.850;4.446;2023-01-08T11:41:40;5.13;;;0.90;;
23782;SDS011;12071;50.850;4.446;2023-01-08T11:50:09;2.40;;;0.70;;
23782;SDS011;12071;50.850;4.446;2023-01-08T11:52:57;5.95;;;0.88;;
23782;SDS011;12071;50.850;4.446;2023-01-08T11:55:45;5.75;;;0.93;;
23782;SDS011;12071;50.850;4.446;2023-01-08T11:58:32;12.40;;;1.27;;
23782;SDS011;12071;50.850;4.446;2023-01-08T12:03:35;7.55;;;1.02;;
23782;SDS011;12071;50.850;4.446;2023-01-08T12:08:53;4.70;;;1.20;;
23782;SDS011;12071;50.850;4.446;2023-01-08T12:11:39;7.20;;;1.00;;
23782;SDS011;12071;50.850;4.446;2023-01-08T12:19:35;4.22;;;0.98;;
23782;SDS011;12071;50.850;4.446;2023-01-08T12:27:53;4.82;;;0.90;;
23782;SDS011;12071;50.850;4.446;2023-01-08T12:36:01;4.28;;;0.63;;
23782;SDS011;12071;50.850;4.446;2023-01-08T12:38:36;6.65;;;0.88;;
23782;SDS011;12071;50.850;4.446;2023-01-08T12:41:11;5.25;;;0.90;;
23782;SDS011;12071;50.850;4.446;2023-01-08T12:43:47;7.82;;;0.95;;
23782;SDS011;12071;50.850;4.446;2023-01-08T12:46:15;7.15;;;0.70;;
23782;SDS011;12071;50.850;4.446;2023-01-08T12:48:42;7.38;;;1.00;;
23782;SDS011;12071;50.850;4.446;2023-01-08T12:51:18;5.45;;;1.08;;
23782;SDS011;12071;50.850;4.446;2023-01-08T12:56:39;5.50;;;1.33;;
23782;SDS011;12071;50.850;4.446;2023-01-08T13:02:14;7.20;;;0.90;;
23782;SDS011;12071;50.850;4.446;2023-01-08T13:04:40;9.43;;;1.42;;
23782;SDS011;12071;50.850;4.446;2023-01-08T13:07:09;4.25;;;0.93;;
23782;SDS011;12071;50.850;4.446;2023-01-08T13:09:42;6.30;;;0.93;;
23782;SDS011;12071;50.850;4.446;2023-01-08T13:12:08;8.18;;;1.00;;
23782;SDS011;12071;50.850;4.446;2023-01-08T13:14:41;5.05;;;1.10;;
23782;SDS011;12071;50.850;4.446;2023-01-08T13:17:17;3.42;;;1.00;;
23782;SDS011;12071;50.850;4.446;2023-01-08T13:19:50;6.75;;;1.10;;
23782;SDS011;12071;50.850;4.446;2023-01-08T13:25:06;5.28;;;0.90;;
23782;SDS011;12071;50.850;4.446;2023-01-08T13:27:33;5.65;;;1.10;;
23782;SDS011;12071;50.850;4.446;2023-01-08T13:29:59;4.55;;;0.82;;
23782;SDS011;12071;50.850;4.446;2023-01-08T13:37:39;6.53;;;1.05;;
23782;SDS011;12071;50.850;4.446;2023-01-08T13:43:00;4.90;;;1.00;;
23782;SDS011;12071;50.850;4.446;2023-01-08T13:45:27;4.20;;;0.80;;
23782;SDS011;12071;50.850;4.446;2023-01-08T13:47:54;5.00;;;1.08;;
23782;SDS011;12071;50.850;4.446;2023-01-08T13:50:21;2.50;;;0.93;;
23782;SDS011;12071;50.850;4.446;2023-01-08T13:52:48;7.82;;;0.95;;
23782;SDS011;12071;50.850;4.446;2023-01-08T13:55:29;7.68;;;1.30;;
23782;SDS011;12071;50.850;4.446;2023-01-08T13:57:58;5.13;;;0.75;;
23782;SDS011;12071;50.850;4.446;2023-01-08T14:00:30;8.13;;;1.00;;
23782;SDS011;12071;50.850;4.446;2023-01-08T14:03:20;5.30;;;0.88;;
23782;SDS011;12071;50.850;4.446;2023-01-08T14:05:46;8.07;;;1.10;;
23782;SDS011;12071;50.850;4.446;2023-01-08T14:08:24;6.95;;;0.90;;
23782;SDS011;12071;50.850;4.446;2023-01-08T14:10:51;4.50;;;0.98;;
23782;SDS011;12071;50.850;4.446;2023-01-08T14:13:19;3.78;;;1.00;;
23782;SDS011;12071;50.850;4.446;2023-01-08T14:15:51;4.57;;;0.73;;
23782;SDS011;12071;50.850;4.446;2023-01-08T14:18:19;6.72;;;1.27;;
23782;SDS011;12071;50.850;4.446;2023-01-08T14:20:46;4.68;;;0.90;;
23782;SDS011;12071;50.850;4.446;2023-01-08T14:23:19;2.75;;;0.80;;
23782;SDS011;12071;50.850;4.446;2023-01-08T14:25:54;4.30;;;0.77;;
23782;SDS011;12071;50.850;4.446;2023-01-08T14:28:21;5.22;;;0.88;;
23782;SDS011;12071;50.850;4.446;2023-01-08T14:30:51;5.88;;;1.00;;
23782;SDS011;12071;50.850;4.446;2023-01-08T14:33:30;5.00;;;0.85;;
23782;SDS011;12071;50.850;4.446;2023-01-08T14:35:58;3.80;;;0.90;;
23782;SDS011;12071;50.850;4.446;2023-01-08T14:38:25;5.07;;;1.10;;
23782;SDS011;12071;50.850;4.446;2023-01-08T14:40:58;5.28;;;1.10;;
23782;SDS011;12071;50.850;4.446;2023-01-08T14:43:43;2.92;;;0.65;;
23782;SDS011;12071;50.850;4.446;2023-01-08T14:46:14;6.15;;;1.25;;
23782;SDS011;12071;50.850;4.446;2023-01-08T14:48:48;6.03;;;1.20;;
23782;SDS011;12071;50.850;4.446;2023-01-08T14:51:19;4.45;;;0.85;;
23782;SDS011;12071;50.850;4.446;2023-01-08T14:53:50;5.45;;;1.00;;
23782;SDS011;12071;50.850;4.446;2023-01-08T14:56:23;5.53;;;0.98;;
23782;SDS011;12071;50.850;4.446;2023-01-08T14:58:59;5.50;;;0.90;;
23782;SDS011;12071;50.850;4.446;2023-01-08T15:01:35;8.05;;;1.00;;
23782;SDS011;12071;50.850;4.446;2023-01-08T15:06:41;8.68;;;1.73;;
23782;SDS011;12071;50.850;4.446;2023-01-08T15:12:46;6.88;;;1.08;;
23782;SDS011;12071;50.850;4.446;2023-01-08T15:14:48;4.85;;;1.10;;
23782;SDS011;12071;50.850;4.446;2023-01-08T15:17:15;5.95;;;1.10;;
23782;SDS011;12071;50.850;4.446;2023-01-08T15:19:44;9.20;;;1.40;;
23782;SDS011;12071;50.850;4.446;2023-01-08T15:22:30;6.97;;;1.20;;
23782;SDS011;12071;50.850;4.446;2023-01-08T15:24:57;6.03;;;1.08;;
23782;SDS011;12071;50.850;4.446;2023-01-08T15:27:24;4.72;;;1.20;;
23782;SDS011;12071;50.850;4.446;2023-01-08T15:29:51;10.05;;;1.77;;
23782;SDS011;12071;50.850;4.446;2023-01-08T15:32:30;5.47;;;1.30;;
23782;SDS011;12071;50.850;4.446;2023-01-08T15:34:59;7.13;;;1.58;;
23782;SDS011;12071;50.850;4.446;2023-01-08T15:37:25;4.45;;;1.30;;
23782;SDS011;12071;50.850;4.446;2023-01-08T15:39:52;8.05;;;1.17;;
23782;SDS011;12071;50.850;4.446;2023-01-08T15:42:18;7.25;;;1.17;;
23782;SDS011;12071;50.850;4.446;2023-01-08T15:45:05;7.75;;;1.50;;
23782;SDS011;12071;50.850;4.446;2023-01-08T15:47:36;6.05;;;1.38;;
23782;SDS011;12071;50.850;4.446;2023-01-08T15:50:02;7.95;;;1.48;;
23782;SDS011;12071;50.850;4.446;2023-01-08T15:52:28;11.05;;;1.88;;
23782;SDS011;12071;50.850;4.446;2023-01-08T15:54:58;7.88;;;1.45;;
23782;SDS011;12071;50.850;4.446;2023-01-08T15:57:24;11.38;;;1.40;;
23782;SDS011;12071;50.850;4.446;2023-01-08T15:59:50;4.70;;;1.17;;
23782;SDS011;12071;50.850;4.446;2023-01-08T16:02:16;8.98;;;1.70;;
23782;SDS011;12071;50.850;4.446;2023-01-08T16:04:42;8.38;;;1.20;;
23782;SDS011;12071;50.850;4.446;2023-01-08T16:07:08;5.03;;;1.42;;
23782;SDS011;12071;50.850;4.446;2023-01-08T16:09:33;8.52;;;1.20;;
23782;SDS011;12071;50.850;4.446;2023-01-08T16:11:59;7.50;;;1.45;;
23782;SDS011;12071;50.850;4.446;2023-01-08T16:14:24;6.63;;;1.48;;
23782;SDS011;12071;50.850;4.446;2023-01-08T16:16:50;6.38;;;1.42;;
23782;SDS011;12071;50.850;4.446;2023-01-08T16:19:15;4.05;;;1.00;;
23782;SDS011;12071;50.850;4.446;2023-01-08T16:21:41;9.35;;;1.35;;
23782;SDS011;12071;50.850;4.446;2023-01-08T16:24:12;7.83;;;2.00;;